This is the latest recevied weather packets stored in our database for station/object VA7NEZ. If no packets are shown the sender has not sent any weather packets the latest 10 day(s).
| Time | Temp. | Humidity | Pressure | Rain* | Wind** | Luminosity | Snow |
|---|---|---|---|---|---|---|---|
| 1777510756 | 0° C | 100% | 1021.6 hPa | 0 mm | - | - | - |
| 1777510166 | 0° C | 100% | 1021.7 hPa | 0 mm | - | - | - |
| 1777509141 | 20.56° C | 33% | 1021.7 hPa | 0 mm | - | - | - |
| 1777508642 | 21.11° C | 33% | 1021.6 hPa | 0 mm | - | - | - |
| 1777508091 | 21.67° C | 31% | 1021.6 hPa | 0 mm | - | - | - |
| 1777505437 | 22.22° C | 29% | 1021.8 hPa | 0 mm | - | - | - |
| 1777503731 | 23.33° C | 28% | 1022.1 hPa | 0 mm | - | - | - |
| 1777502046 | 0° C | 100% | 1022.4 hPa | 0 mm | - | - | - |
| 1777499866 | 19.44° C | 39% | 1022.5 hPa | 0 mm | - | - | - |
| 1777497086 | 20° C | 36% | 1022.6 hPa | 0 mm | - | - | - |
| 1777496542 | 0° C | 100% | 1022.6 hPa | 0 mm | - | - | - |
| 1777496016 | 20° C | 36% | 1022.7 hPa | 0 mm | - | - | - |
| 1777493811 | 0° C | 100% | 1023 hPa | 0 mm | - | - | - |
| 1777493296 | 18.89° C | 39% | 1023 hPa | 0 mm | - | - | - |
| 1777491146 | 17.78° C | 43% | 1023.5 hPa | 0 mm | - | - | - |
| 1777490651 | 17.78° C | 44% | 1023.4 hPa | 0 mm | - | - | - |
| 1777490131 | 17.22° C | 45% | 1023.5 hPa | 0 mm | - | - | - |
| 1777489646 | 16.67° C | 45% | 1023.7 hPa | 0 mm | - | - | - |
| 1777485946 | 14.44° C | 50% | 1024.5 hPa | 0 mm | - | - | - |
| 1777484871 | 13.89° C | 53% | 1024.7 hPa | 0 mm | - | - | - |
| 1777484287 | 13.33° C | 53% | 1024.8 hPa | 0 mm | - | - | - |
| 1777483721 | 12.78° C | 54% | 1024.9 hPa | 0 mm | - | - | - |
| 1777482711 | 12.78° C | 56% | 1025.1 hPa | 0 mm | - | - | - |
| 1777480476 | 11.67° C | 63% | 1025.2 hPa | 0 mm | - | - | - |
| 1777479951 | 0° C | 100% | 1025.3 hPa | 0 mm | - | - | - |
* Rain latest hour (hover to see other rain measurements)
** Current wind speed in m/s (hover to see current wind gust speed)